Etzikom, Canada
Current Conditions -  °F | °C
As of 5:00 PM on Friday 31 Oct 2014 (Local Time) from CYXH Reporting Station
Broken Clouds Broken Clouds  
Wind Chill: 15°   Ceiling: 28000
Heat Index: 15°   Visibility: 30mi
Dew Point:   Wind: 8mph
Humidity: 45%   Direction: 200°SSW
Pressure: 29.64"   Gusts: NA
Location:  49.48°N, 111.1°W
Report Text: CYXH 312300Z 20007KT 30SM FEW190 BKN280 15/03 A2964 RMK AC1CI6 SLP041 DENSITY ALT 3200FT
Loading
Personal Weather Stations






























Interactive Weather Map
Tropical Storm Tracking
New forecast layout! Learn more

10-Day Weather Forecast

Advertisements
Track Severe Weather on mobile